createdAt,value
2023-05-15T00:00:47.050Z,8.60
2023-05-15T00:03:17.858Z,10.80
2023-05-15T00:05:47.718Z,10.47
2023-05-15T00:08:17.465Z,13.33
2023-05-15T00:10:57.458Z,9.80
2023-05-15T00:13:30.443Z,7.40
2023-05-15T00:16:02.818Z,14.93
2023-05-15T00:18:32.622Z,25.83
2023-05-15T00:21:02.426Z,8.03
2023-05-15T00:23:32.148Z,9.57
2023-05-15T00:26:01.993Z,6.27
2023-05-15T00:28:31.732Z,12.17
2023-05-15T00:31:04.094Z,8.77
2023-05-15T00:33:35.948Z,6.03
2023-05-15T00:36:06.427Z,5.47
2023-05-15T00:38:36.234Z,5.67
2023-05-15T00:41:09.259Z,7.87
2023-05-15T00:43:41.738Z,8.83
2023-05-15T00:46:16.364Z,8.80
2023-05-15T00:48:46.999Z,7.13
2023-05-15T00:51:16.706Z,7.10
2023-05-15T00:53:46.678Z,9.10
2023-05-15T00:56:17.107Z,7.30
2023-05-15T00:58:49.265Z,6.80
2023-05-15T01:01:22.021Z,16.80
2023-05-15T01:03:51.905Z,10.83
2023-05-15T01:06:23.641Z,7.50
2023-05-15T01:08:54.693Z,7.53
2023-05-15T01:11:27.718Z,8.10
2023-05-15T01:13:58.056Z,9.77
2023-05-15T01:16:30.365Z,8.20
2023-05-15T01:19:00.158Z,8.70
2023-05-15T01:22:03.089Z,10.80
2023-05-15T01:24:53.453Z,12.23
2023-05-15T01:27:32.286Z,10.77
2023-05-15T01:30:08.316Z,8.30
2023-05-15T01:32:46.307Z,8.43
2023-05-15T01:35:21.955Z,9.13
2023-05-15T01:37:58.816Z,12.10
2023-05-15T01:40:30.864Z,12.47
2023-05-15T01:43:10.769Z,12.33
2023-05-15T01:45:42.244Z,8.47
2023-05-15T01:48:15.605Z,10.00
2023-05-15T01:50:48.494Z,8.70
2023-05-15T01:53:19.878Z,14.00
2023-05-15T01:55:51.560Z,8.77
2023-05-15T01:58:24.374Z,7.20
2023-05-15T02:00:55.058Z,8.23
2023-05-15T02:03:24.984Z,11.30
2023-05-15T02:05:56.763Z,9.10
2023-05-15T02:08:28.964Z,9.07
2023-05-15T02:11:00.889Z,8.37
2023-05-15T02:13:34.044Z,8.40
2023-05-15T02:16:03.932Z,10.30
2023-05-15T02:18:33.791Z,9.80
2023-05-15T02:21:05.176Z,7.43
2023-05-15T02:23:35.136Z,9.60
2023-05-15T02:26:16.349Z,8.47
2023-05-15T02:28:57.696Z,10.33
2023-05-15T02:31:35.159Z,9.47
2023-05-15T02:34:15.738Z,9.10
2023-05-15T02:36:50.385Z,9.63
2023-05-15T02:39:23.617Z,9.10
2023-05-15T02:41:55.838Z,11.13
2023-05-15T02:44:29.895Z,8.90
2023-05-15T02:47:00.653Z,13.23
2023-05-15T02:49:30.383Z,11.97
2023-05-15T02:52:00.146Z,18.17
2023-05-15T02:54:29.969Z,10.13
2023-05-15T02:56:59.812Z,7.17
2023-05-15T02:59:32.228Z,13.23
2023-05-15T03:02:03.659Z,10.93
2023-05-15T03:04:33.537Z,8.00
2023-05-15T03:07:03.351Z,9.23
2023-05-15T03:09:33.076Z,9.83
2023-05-15T03:12:02.858Z,16.20
2023-05-15T03:14:35.222Z,7.07
2023-05-15T03:17:05.154Z,7.33
2023-05-15T03:19:34.975Z,8.00
2023-05-15T03:22:04.717Z,7.90
2023-05-15T03:24:34.460Z,8.47
2023-05-15T03:27:05.018Z,13.87
2023-05-15T03:29:37.454Z,10.20
2023-05-15T03:32:07.749Z,10.90
2023-05-15T03:34:38.756Z,9.23
2023-05-15T03:37:10.177Z,10.00
2023-05-15T03:39:39.967Z,9.40
2023-05-15T03:42:10.359Z,8.07
2023-05-15T03:44:42.773Z,8.47
2023-05-15T03:47:12.518Z,8.40
2023-05-15T03:49:42.295Z,22.03
2023-05-15T03:52:12.477Z,9.77
2023-05-15T03:54:42.633Z,11.70
2023-05-15T03:57:12.450Z,10.03
2023-05-15T03:59:44.745Z,10.27
2023-05-15T04:02:14.510Z,9.30
2023-05-15T04:04:44.770Z,9.73
2023-05-15T04:07:14.586Z,14.57
2023-05-15T04:09:44.307Z,15.00
2023-05-15T04:12:14.031Z,11.17
2023-05-15T04:14:46.362Z,9.93
2023-05-15T04:17:16.106Z,15.60
2023-05-15T04:19:46.104Z,10.83
2023-05-15T04:22:15.836Z,15.10
2023-05-15T04:24:45.766Z,10.70
2023-05-15T04:27:15.473Z,10.40
2023-05-15T04:29:48.067Z,10.00
2023-05-15T04:32:17.896Z,10.33
2023-05-15T04:34:47.740Z,13.80
2023-05-15T04:37:18.009Z,12.40
2023-05-15T04:39:47.840Z,11.67
2023-05-15T04:42:17.785Z,12.83
2023-05-15T04:44:50.164Z,10.53
2023-05-15T04:47:19.942Z,11.27
2023-05-15T04:49:50.339Z,13.63
2023-05-15T04:52:20.171Z,13.77
2023-05-15T04:54:51.610Z,10.33
2023-05-15T04:57:21.679Z,15.60
2023-05-15T04:59:54.065Z,11.77
2023-05-15T05:02:24.547Z,12.50
2023-05-15T05:04:54.319Z,15.17
2023-05-15T05:07:24.040Z,13.20
2023-05-15T05:09:53.724Z,12.93
2023-05-15T05:12:23.659Z,13.80
2023-05-15T05:14:56.910Z,12.53
2023-05-15T05:17:26.902Z,16.30
2023-05-15T05:19:56.667Z,15.40
2023-05-15T05:22:26.638Z,13.80
2023-05-15T05:24:56.443Z,13.23
2023-05-15T05:27:27.013Z,14.47
2023-05-15T05:29:59.379Z,20.13
2023-05-15T05:32:29.168Z,16.00
2023-05-15T05:34:58.920Z,14.80
2023-05-15T05:37:28.812Z,16.07
2023-05-15T05:39:58.522Z,14.83
2023-05-15T05:42:28.356Z,14.93
2023-05-15T05:45:00.950Z,16.83
2023-05-15T05:47:30.767Z,18.37
2023-05-15T05:50:00.557Z,16.47
2023-05-15T05:52:31.117Z,16.60
2023-05-15T05:55:00.868Z,14.60
2023-05-15T05:57:31.186Z,17.60
2023-05-15T06:00:04.967Z,15.97
2023-05-15T06:02:39.276Z,17.10
2023-05-15T06:05:10.469Z,19.33
2023-05-15T06:07:40.390Z,21.30
2023-05-15T06:10:12.113Z,20.07
2023-05-15T06:12:41.859Z,23.13
2023-05-15T06:15:14.858Z,17.77
2023-05-15T06:17:44.759Z,19.93
2023-05-15T06:20:15.039Z,20.43
2023-05-15T06:22:44.904Z,18.33
2023-05-15T06:25:14.902Z,17.07
2023-05-15T06:27:45.283Z,16.67
2023-05-15T06:30:18.536Z,16.83
2023-05-15T06:32:48.850Z,14.93
2023-05-15T06:35:19.173Z,15.93
2023-05-15T06:37:50.558Z,19.20
2023-05-15T06:40:20.462Z,15.97
2023-05-15T06:42:50.221Z,18.00
2023-05-15T06:45:24.481Z,20.30
2023-05-15T06:47:54.453Z,19.03
2023-05-15T06:50:24.562Z,18.23
2023-05-15T06:52:54.888Z,18.97
2023-05-15T06:55:24.831Z,19.20
2023-05-15T06:57:54.692Z,22.60
2023-05-15T07:00:27.038Z,19.80
2023-05-15T07:02:57.501Z,20.20
2023-05-15T07:05:27.518Z,24.80
2023-05-15T07:07:57.364Z,19.67
2023-05-15T07:10:27.293Z,20.87
2023-05-15T07:12:57.431Z,22.83
2023-05-15T07:15:29.769Z,21.03
2023-05-15T07:17:59.572Z,30.53
2023-05-15T07:20:31.722Z,20.70
2023-05-15T07:23:03.134Z,20.40
2023-05-15T07:25:32.893Z,23.70
2023-05-15T07:28:02.661Z,22.20
2023-05-15T07:30:35.024Z,18.77
2023-05-15T07:33:05.121Z,20.33
2023-05-15T07:35:34.900Z,21.77
2023-05-15T07:38:04.861Z,18.07
2023-05-15T07:40:34.714Z,16.60
2023-05-15T07:43:05.772Z,19.53
2023-05-15T07:45:38.206Z,22.10
2023-05-15T07:48:17.197Z,18.90
2023-05-15T07:50:49.005Z,19.27
2023-05-15T07:53:19.910Z,19.80
2023-05-15T07:55:49.745Z,23.30
2023-05-15T07:58:19.759Z,22.30
2023-05-15T08:00:52.133Z,22.43
2023-05-15T08:03:22.054Z,18.37
2023-05-15T08:05:52.007Z,21.30
2023-05-15T08:08:21.791Z,19.83
2023-05-15T08:10:51.677Z,16.90
2023-05-15T08:13:21.404Z,26.37
2023-05-15T08:15:53.788Z,23.90
2023-05-15T08:18:23.667Z,16.80
2023-05-15T08:20:53.400Z,27.00
2023-05-15T08:23:23.114Z,18.80
2023-05-15T08:25:52.839Z,24.80
2023-05-15T08:28:22.608Z,25.10
2023-05-15T08:30:54.978Z,19.70
2023-05-15T08:33:24.751Z,20.67
2023-05-15T08:35:54.684Z,19.80
2023-05-15T08:38:24.486Z,20.20
2023-05-15T08:40:57.319Z,28.30
2023-05-15T08:43:29.838Z,20.40
2023-05-15T08:46:03.209Z,20.57
2023-05-15T08:48:33.871Z,18.93
2023-05-15T08:51:04.003Z,22.40
2023-05-15T08:53:33.874Z,25.57
2023-05-15T08:56:03.615Z,23.17
2023-05-15T08:58:35.086Z,25.37
2023-05-15T09:01:08.444Z,27.87
2023-05-15T09:03:38.303Z,18.70
2023-05-15T09:06:09.235Z,19.50
2023-05-15T09:08:40.198Z,19.70
2023-05-15T09:11:10.781Z,24.53
2023-05-15T09:13:40.583Z,23.80
2023-05-15T09:16:13.069Z,25.13
2023-05-15T09:18:44.364Z,19.10
2023-05-15T09:21:27.366Z,18.93
2023-05-15T09:23:58.971Z,20.33
2023-05-15T09:26:28.748Z,21.50
2023-05-15T09:29:05.190Z,18.67
2023-05-15T09:31:38.080Z,28.53
2023-05-15T09:34:09.771Z,18.20
2023-05-15T09:36:45.730Z,21.83
2023-05-15T09:39:16.805Z,18.60
2023-05-15T09:41:47.292Z,21.13
2023-05-15T09:44:28.049Z,15.87
2023-05-15T09:47:00.717Z,18.10
2023-05-15T09:49:33.161Z,22.10
2023-05-15T09:52:03.628Z,15.47
2023-05-15T09:54:34.527Z,15.93
2023-05-15T09:57:11.513Z,20.47
2023-05-15T09:59:46.558Z,15.87
2023-05-15T10:02:28.282Z,20.23
2023-05-15T10:04:59.271Z,20.00
2023-05-15T10:07:32.395Z,17.50
2023-05-15T10:10:02.801Z,21.23
2023-05-15T10:12:34.232Z,17.10
2023-05-15T10:15:05.825Z,16.43
2023-05-15T10:17:40.024Z,24.30
2023-05-15T10:20:11.807Z,16.83
2023-05-15T10:22:44.533Z,18.33
2023-05-15T10:25:20.230Z,17.50
2023-05-15T10:27:52.885Z,18.87
2023-05-15T10:30:23.040Z,16.30
2023-05-15T10:32:55.659Z,17.00
2023-05-15T10:35:26.115Z,19.83
2023-05-15T10:37:56.650Z,20.73
2023-05-15T10:40:27.217Z,19.63
2023-05-15T10:42:58.186Z,20.63
2023-05-15T10:45:28.671Z,18.97
2023-05-15T10:48:02.322Z,18.43
2023-05-15T10:50:32.150Z,23.23
2023-05-15T10:53:03.338Z,29.73
2023-05-15T10:55:33.989Z,25.33
2023-05-15T10:58:03.748Z,17.77
2023-05-15T11:00:34.131Z,19.80
2023-05-15T11:03:08.170Z,15.40
2023-05-15T11:06:07.803Z,16.77
2023-05-15T11:08:37.846Z,16.00
2023-05-15T11:11:07.777Z,13.13
2023-05-15T11:14:15.151Z,12.80
2023-05-15T11:17:01.578Z,14.63
2023-05-15T11:19:55.830Z,9.20
2023-05-15T11:22:30.095Z,10.77
2023-05-15T11:25:03.411Z,15.30
2023-05-15T11:27:35.541Z,22.00
2023-05-15T11:30:18.233Z,12.10
2023-05-15T11:32:52.272Z,9.30
2023-05-15T11:35:26.362Z,7.93
2023-05-15T11:37:57.478Z,7.70
2023-05-15T11:40:29.343Z,9.27
2023-05-15T11:43:07.240Z,9.30
2023-05-15T11:45:38.613Z,7.50
2023-05-15T11:48:15.029Z,7.23
2023-05-15T11:50:48.401Z,15.30
2023-05-15T11:53:19.781Z,10.07
2023-05-15T11:55:49.598Z,8.90
2023-05-15T11:58:20.708Z,7.20
2023-05-15T12:00:51.777Z,10.80
2023-05-15T12:03:36.385Z,7.87
2023-05-15T12:06:09.113Z,10.97
2023-05-15T12:08:40.210Z,7.07
2023-05-15T12:11:09.948Z,7.03
2023-05-15T12:13:39.706Z,13.33
2023-05-15T12:16:09.856Z,10.73
2023-05-15T12:18:39.654Z,7.50
2023-05-15T12:21:12.745Z,12.40
2023-05-15T12:23:48.735Z,13.30
2023-05-15T12:26:27.471Z,18.43
2023-05-15T12:28:58.236Z,11.40
2023-05-15T12:31:28.199Z,17.67
2023-05-15T12:33:58.898Z,14.80
2023-05-15T12:36:32.908Z,11.33
2023-05-15T12:39:09.256Z,19.23
2023-05-15T12:41:41.042Z,17.10
2023-05-15T12:44:19.043Z,17.73
2023-05-15T12:46:49.049Z,15.93
2023-05-15T12:49:24.190Z,20.93
2023-05-15T12:51:56.480Z,18.07
2023-05-15T12:54:27.120Z,24.10
2023-05-15T12:56:57.612Z,19.23
2023-05-15T12:59:27.930Z,14.73
2023-05-15T13:01:57.869Z,15.53
2023-05-15T13:04:27.703Z,14.83
2023-05-15T13:07:00.211Z,26.60
2023-05-15T13:09:29.994Z,15.40
2023-05-15T13:12:00.113Z,13.70
2023-05-15T13:14:30.974Z,14.23
2023-05-15T13:17:03.483Z,14.20
2023-05-15T13:19:33.576Z,14.43
2023-05-15T13:22:06.001Z,11.77
2023-05-15T13:24:35.733Z,16.30
2023-05-15T13:27:05.504Z,15.02
2023-05-15T13:29:35.278Z,14.30
2023-05-15T13:32:05.007Z,10.40
2023-05-15T13:34:35.333Z,10.07
2023-05-15T13:37:07.925Z,7.60
2023-05-15T13:39:37.668Z,7.53
2023-05-15T13:42:07.655Z,9.37
2023-05-15T13:44:38.181Z,6.30
2023-05-15T13:47:10.774Z,15.53
2023-05-15T13:49:40.673Z,16.40
2023-05-15T13:52:12.974Z,10.33
2023-05-15T13:54:42.750Z,8.93
2023-05-15T13:57:12.512Z,14.03
2023-05-15T13:59:42.301Z,7.53
2023-05-15T14:02:12.036Z,10.70
2023-05-15T14:04:41.770Z,9.10
2023-05-15T14:07:14.203Z,9.50
2023-05-15T14:09:43.975Z,9.43
2023-05-15T14:12:14.144Z,12.10
2023-05-15T14:14:43.933Z,10.73
2023-05-15T14:17:13.661Z,11.83
2023-05-15T14:19:43.602Z,8.83
2023-05-15T14:22:16.012Z,9.17
2023-05-15T14:24:45.789Z,23.33
2023-05-15T14:27:15.533Z,7.43
2023-05-15T14:29:45.405Z,9.63
2023-05-15T14:32:15.190Z,10.57
2023-05-15T14:34:45.048Z,9.70
2023-05-15T14:37:17.531Z,10.47
2023-05-15T14:39:47.282Z,11.87
2023-05-15T14:42:17.560Z,13.90
2023-05-15T14:44:47.323Z,8.43
2023-05-15T14:47:17.082Z,15.40
2023-05-15T14:49:46.894Z,7.33
2023-05-15T14:52:19.232Z,16.40
2023-05-15T14:55:00.622Z,19.43
2023-05-15T14:57:37.423Z,12.50
2023-05-15T15:00:08.622Z,20.70
2023-05-15T15:02:38.457Z,12.93
2023-05-15T15:05:09.451Z,11.73
2023-05-15T15:08:06.637Z,11.13
2023-05-15T15:10:38.008Z,11.67
2023-05-15T15:13:10.246Z,10.70
2023-05-15T15:15:40.393Z,6.93
2023-05-15T15:18:10.227Z,11.97
2023-05-15T15:20:40.160Z,10.10
2023-05-15T15:23:12.596Z,8.83
2023-05-15T15:25:42.385Z,9.20
2023-05-15T15:28:12.408Z,15.33
2023-05-15T15:30:42.255Z,12.80
2023-05-15T15:33:11.988Z,11.80
2023-05-15T15:35:41.733Z,11.60
2023-05-15T15:38:14.321Z,13.80
2023-05-15T15:40:44.143Z,12.93
2023-05-15T15:43:13.858Z,8.90
2023-05-15T15:45:43.686Z,18.33
2023-05-15T15:48:13.524Z,11.00
2023-05-15T15:50:43.367Z,12.80
2023-05-15T15:53:15.699Z,11.70
2023-05-15T15:55:47.118Z,15.80
2023-05-15T15:58:19.839Z,13.40
2023-05-15T16:00:49.719Z,11.20
2023-05-15T16:03:19.632Z,13.83
2023-05-15T16:05:49.476Z,13.77
2023-05-15T16:08:21.780Z,14.13
2023-05-15T16:10:51.552Z,14.23
2023-05-15T16:13:21.291Z,10.60
2023-05-15T16:15:51.112Z,10.00
2023-05-15T16:18:20.904Z,11.80
2023-05-15T16:20:51.112Z,12.80
2023-05-15T16:23:23.467Z,12.87
2023-05-15T16:25:53.169Z,15.70
2023-05-15T16:28:22.948Z,20.13
2023-05-15T16:30:53.969Z,11.90
2023-05-15T16:33:24.108Z,15.37
2023-05-15T16:35:53.883Z,10.73
2023-05-15T16:38:26.775Z,8.77
2023-05-15T16:40:56.484Z,10.53
2023-05-15T16:43:26.286Z,11.13
2023-05-15T16:45:56.077Z,9.03
2023-05-15T16:48:26.445Z,13.17
2023-05-15T16:50:56.550Z,10.50
2023-05-15T16:53:29.460Z,8.00
2023-05-15T16:55:59.217Z,13.37
2023-05-15T16:58:28.956Z,9.53
2023-05-15T17:00:58.795Z,11.20
2023-05-15T17:03:28.625Z,13.40
2023-05-15T17:05:58.457Z,18.40
2023-05-15T17:08:30.785Z,11.47
2023-05-15T17:11:00.632Z,10.60
2023-05-15T17:13:30.426Z,11.80
2023-05-15T17:16:00.290Z,11.33
2023-05-15T17:18:30.161Z,13.73
2023-05-15T17:20:59.933Z,8.60
2023-05-15T17:23:32.263Z,10.20
2023-05-15T17:26:02.049Z,10.53
2023-05-15T17:28:31.803Z,10.40
2023-05-15T17:31:02.122Z,9.93
2023-05-15T17:33:32.359Z,12.97
2023-05-15T17:36:02.126Z,17.60
2023-05-15T17:38:34.466Z,8.07
2023-05-15T17:41:04.211Z,9.37
2023-05-15T17:43:33.951Z,14.93
2023-05-15T17:46:05.824Z,12.20
2023-05-15T17:48:35.992Z,8.90
2023-05-15T17:51:05.851Z,15.43
2023-05-15T17:53:38.228Z,9.93
2023-05-15T17:56:08.388Z,7.73
2023-05-15T17:58:38.255Z,13.47
2023-05-15T18:01:08.286Z,10.67
2023-05-15T18:03:39.659Z,5.77
2023-05-15T18:06:13.615Z,6.10
2023-05-15T18:08:47.681Z,8.03
2023-05-15T18:11:22.464Z,15.13
2023-05-15T18:13:52.725Z,7.60
2023-05-15T18:16:22.546Z,6.37
2023-05-15T18:18:52.415Z,8.90
2023-05-15T18:21:22.880Z,9.30
2023-05-15T18:23:55.182Z,13.00
2023-05-15T18:26:25.909Z,7.33
2023-05-15T18:28:56.547Z,7.17
2023-05-15T18:31:26.313Z,8.33
2023-05-15T18:33:56.483Z,9.73
2023-05-15T18:36:26.324Z,9.57
2023-05-15T18:38:58.656Z,10.53
2023-05-15T18:41:28.645Z,9.50
2023-05-15T18:43:58.407Z,8.70
2023-05-15T18:46:28.687Z,8.97
2023-05-15T18:48:58.526Z,9.80
2023-05-15T18:51:28.503Z,9.60
2023-05-15T18:54:00.947Z,12.40
2023-05-15T18:56:30.747Z,15.20
2023-05-15T18:59:00.515Z,10.50
2023-05-15T19:01:30.371Z,14.77
2023-05-15T19:04:00.177Z,10.37
2023-05-15T19:06:29.896Z,11.13
2023-05-15T19:09:02.673Z,14.20
2023-05-15T19:11:32.455Z,16.23
2023-05-15T19:14:02.382Z,13.00
2023-05-15T19:16:33.167Z,18.57
2023-05-15T19:19:03.053Z,12.83
2023-05-15T19:21:32.838Z,16.63
2023-05-15T19:24:05.166Z,11.03
2023-05-15T19:26:35.171Z,9.70
2023-05-15T19:29:04.892Z,16.67
2023-05-15T19:31:34.680Z,12.47
2023-05-15T19:34:04.514Z,11.63
2023-05-15T19:36:34.286Z,10.20
2023-05-15T19:39:06.852Z,13.67
2023-05-15T19:41:36.686Z,13.10
2023-05-15T19:44:08.363Z,14.23
2023-05-15T19:46:38.275Z,16.43
2023-05-15T19:49:08.779Z,15.13
2023-05-15T19:51:41.181Z,14.37
2023-05-15T19:54:13.497Z,12.00
2023-05-15T19:56:43.246Z,16.80
2023-05-15T19:59:13.174Z,17.83
2023-05-15T20:01:42.914Z,16.70
2023-05-15T20:04:13.739Z,16.03
2023-05-15T20:06:43.472Z,19.40
2023-05-15T20:09:15.819Z,18.10
2023-05-15T20:11:45.548Z,18.40
2023-05-15T20:14:17.603Z,16.80
2023-05-15T20:16:47.552Z,16.50
2023-05-15T20:19:21.575Z,14.77
2023-05-15T20:21:51.422Z,15.43
2023-05-15T20:24:25.973Z,16.43
2023-05-15T20:26:55.776Z,15.20
2023-05-15T20:29:25.868Z,16.00
2023-05-15T20:31:55.771Z,15.13
2023-05-15T20:34:25.634Z,14.87
2023-05-15T20:36:56.418Z,20.50
2023-05-15T20:39:28.790Z,17.43
2023-05-15T20:41:58.648Z,20.73
2023-05-15T20:44:29.738Z,13.97
2023-05-15T20:46:59.454Z,22.43
2023-05-15T20:49:29.293Z,21.70
2023-05-15T20:51:59.061Z,17.07
2023-05-15T20:54:31.484Z,18.33
2023-05-15T20:57:01.219Z,17.10
2023-05-15T20:59:31.177Z,19.53
2023-05-15T21:02:00.945Z,16.07
2023-05-15T21:04:31.799Z,12.80
2023-05-15T21:07:01.623Z,18.80
2023-05-15T21:09:33.981Z,18.43
2023-05-15T21:12:04.219Z,12.53
2023-05-15T21:14:34.013Z,15.30
2023-05-15T21:17:03.980Z,12.63
2023-05-15T21:19:33.772Z,12.57
2023-05-15T21:22:03.539Z,13.83
2023-05-15T21:24:35.959Z,12.20
2023-05-15T21:27:06.095Z,15.67
2023-05-15T21:29:35.917Z,17.63
2023-05-15T21:32:06.412Z,13.83
2023-05-15T21:34:36.160Z,17.13
2023-05-15T21:37:05.895Z,16.23
2023-05-15T21:39:38.199Z,13.27
2023-05-15T21:42:08.567Z,12.43
2023-05-15T21:44:38.267Z,10.80
2023-05-15T21:47:08.142Z,11.90
2023-05-15T21:49:37.915Z,12.17
2023-05-15T21:52:07.888Z,10.90
2023-05-15T21:54:40.240Z,18.20
2023-05-15T21:57:09.982Z,12.60
2023-05-15T21:59:39.817Z,12.20
2023-05-15T22:02:10.102Z,11.63
2023-05-15T22:04:40.037Z,10.87
2023-05-15T22:07:10.002Z,12.43
2023-05-15T22:09:42.393Z,10.83
2023-05-15T22:12:12.304Z,12.60
2023-05-15T22:14:54.378Z,14.37
2023-05-15T22:17:28.800Z,17.20
2023-05-15T22:20:08.194Z,12.13
2023-05-15T22:22:38.652Z,10.47
2023-05-15T22:25:12.113Z,10.00
2023-05-15T22:27:41.997Z,12.50
2023-05-15T22:30:12.576Z,12.73
2023-05-15T22:32:42.561Z,23.93
2023-05-15T22:35:13.391Z,19.97
2023-05-15T22:37:45.492Z,12.70
2023-05-15T22:40:18.220Z,12.70
2023-05-15T22:42:50.330Z,11.93
2023-05-15T22:45:20.526Z,13.57
2023-05-15T22:47:51.315Z,11.80
2023-05-15T22:50:21.135Z,13.73
2023-05-15T22:52:51.372Z,18.00
2023-05-15T22:55:23.793Z,19.07
2023-05-15T22:57:53.558Z,12.43
2023-05-15T23:00:23.551Z,12.90
2023-05-15T23:02:55.417Z,13.70
2023-05-15T23:05:25.931Z,15.63
2023-05-15T23:07:55.968Z,18.33
2023-05-15T23:10:28.696Z,13.30
2023-05-15T23:12:58.716Z,19.33
2023-05-15T23:15:28.672Z,11.90
2023-05-15T23:17:58.553Z,18.03
2023-05-15T23:20:28.524Z,15.10
2023-05-15T23:22:58.585Z,17.90
2023-05-15T23:25:31.159Z,14.10
2023-05-15T23:28:00.907Z,12.87
2023-05-15T23:30:30.978Z,19.90
2023-05-15T23:33:00.896Z,12.20
2023-05-15T23:35:30.825Z,15.00
2023-05-15T23:38:00.600Z,11.00
2023-05-15T23:40:32.921Z,13.10
2023-05-15T23:43:02.718Z,11.90
2023-05-15T23:45:32.628Z,10.30
2023-05-15T23:48:02.587Z,11.93
2023-05-15T23:50:32.359Z,10.10
2023-05-15T23:53:02.595Z,13.27
2023-05-15T23:55:35.151Z,14.80
2023-05-15T23:58:05.011Z,11.70
